createdAt,value
2022-11-13T00:01:48.197Z,101251.41
2022-11-13T00:04:17.800Z,101244.38
2022-11-13T00:06:47.362Z,101249.69
2022-11-13T00:09:17.025Z,101249.59
2022-11-13T00:11:47.337Z,101245.25
2022-11-13T00:14:17.452Z,101246.94
2022-11-13T00:16:48.836Z,101240.00
2022-11-13T00:19:18.833Z,101246.25
2022-11-13T00:21:48.524Z,101241.03
2022-11-13T00:24:18.166Z,101245.56
2022-11-13T00:26:47.805Z,101241.88
2022-11-13T00:29:17.656Z,101236.56
2022-11-13T00:31:48.797Z,101238.44
2022-11-13T00:34:47.173Z,101234.59
2022-11-13T00:37:08.020Z,101233.13
2022-11-13T00:39:37.762Z,101239.22
2022-11-13T00:42:07.358Z,101232.03
2022-11-13T00:44:36.941Z,101227.63
2022-11-13T00:47:07.966Z,101223.25
2022-11-13T00:49:37.568Z,101227.88
2022-11-13T00:52:07.606Z,101227.72
2022-11-13T00:54:37.212Z,101230.38
2022-11-13T00:57:06.905Z,101217.41
2022-11-13T00:59:36.619Z,101216.78
2022-11-13T01:02:08.378Z,101216.09
2022-11-13T01:04:37.925Z,101224.94
2022-11-13T01:07:07.562Z,101224.31
2022-11-13T01:09:37.219Z,101218.91
2022-11-13T01:12:08.347Z,101216.31
2022-11-13T01:14:38.397Z,101218.06
2022-11-13T01:17:09.814Z,101214.63
2022-11-13T01:19:39.508Z,101218.22
2022-11-13T01:22:09.200Z,101217.38
2022-11-13T01:24:38.760Z,101217.28
2022-11-13T01:27:08.402Z,101217.38
2022-11-13T01:29:38.654Z,101218.22
2022-11-13T01:32:10.074Z,101215.72
2022-11-13T01:34:39.761Z,101215.84
2022-11-13T01:37:09.493Z,101219.28
2022-11-13T01:39:39.184Z,101209.31
2022-11-13T01:42:08.958Z,101216.50
2022-11-13T01:44:49.403Z,101216.41
2022-11-13T01:47:21.641Z,101222.78
2022-11-13T01:49:52.996Z,101220.97
2022-11-13T01:52:24.286Z,101225.34
2022-11-13T01:54:54.861Z,101222.53
2022-11-13T01:57:24.481Z,101225.44
2022-11-13T01:59:56.684Z,101230.75
2022-11-13T02:02:27.914Z,101229.03
2022-11-13T02:04:57.528Z,101230.41
2022-11-13T02:07:27.417Z,101220.97
2022-11-13T02:09:58.229Z,101221.19
2022-11-13T02:12:33.906Z,101209.47
2022-11-13T02:15:06.048Z,101214.72
2022-11-13T02:17:41.909Z,101213.97
2022-11-13T02:20:11.898Z,101217.88
2022-11-13T02:22:45.334Z,101212.56
2022-11-13T02:25:17.199Z,101211.81
2022-11-13T02:27:48.224Z,101212.91
2022-11-13T02:30:23.646Z,101217.28
2022-11-13T02:32:57.356Z,101215.63
2022-11-13T02:35:28.778Z,101215.63
2022-11-13T02:37:59.227Z,101214.63
2022-11-13T02:40:30.609Z,101216.75
2022-11-13T02:43:00.476Z,101214.91
2022-11-13T02:45:30.136Z,101219.47
2022-11-13T02:48:00.798Z,101213.44
2022-11-13T02:50:30.399Z,101222.06
2022-11-13T02:53:00.170Z,101223.06
2022-11-13T02:55:31.210Z,101220.41
2022-11-13T02:58:00.984Z,101220.25
2022-11-13T03:00:31.126Z,101215.97
2022-11-13T03:03:01.141Z,101217.59
2022-11-13T03:05:30.783Z,101206.25
2022-11-13T03:08:00.589Z,101214.31
2022-11-13T03:10:31.623Z,101216.34
2022-11-13T03:13:03.648Z,101208.19
2022-11-13T03:15:34.906Z,101205.78
2022-11-13T03:18:05.292Z,101210.41
2022-11-13T03:20:37.009Z,101214.72
2022-11-13T03:23:06.729Z,101204.94
2022-11-13T03:25:37.725Z,101205.72
2022-11-13T03:28:07.324Z,101205.53
2022-11-13T03:30:36.831Z,101208.06
2022-11-13T03:33:06.473Z,101210.09
2022-11-13T03:35:42.958Z,101209.34
2022-11-13T03:38:15.538Z,101219.97
2022-11-13T03:40:46.497Z,101213.41
2022-11-13T03:43:16.337Z,101217.22
2022-11-13T03:45:47.248Z,101212.59
2022-11-13T03:48:17.479Z,101213.53
2022-11-13T03:50:47.886Z,101218.84
2022-11-13T03:53:17.613Z,101214.16
2022-11-13T03:55:48.606Z,101209.16
2022-11-13T03:58:18.278Z,101213.53
2022-11-13T04:00:48.337Z,101206.81
2022-11-13T04:03:18.143Z,101208.38
2022-11-13T04:05:49.036Z,101209.94
2022-11-13T04:08:19.156Z,101213.22
2022-11-13T04:10:50.141Z,101207.19
2022-11-13T04:13:20.293Z,101210.56
2022-11-13T04:15:50.647Z,101209.59
2022-11-13T04:18:20.524Z,101210.72
2022-11-13T04:20:50.068Z,101214.25
2022-11-13T04:23:19.678Z,101210.56
2022-11-13T04:25:51.019Z,101209.00
2022-11-13T04:28:20.698Z,101209.00
2022-11-13T04:30:50.456Z,101211.50
2022-11-13T04:33:20.212Z,101207.09
2022-11-13T04:35:49.996Z,101205.53
2022-11-13T04:38:19.758Z,101214.47
2022-11-13T04:41:12.139Z,101210.72
2022-11-13T04:43:40.833Z,101205.41
2022-11-13T04:46:10.360Z,101211.75
2022-11-13T04:48:40.022Z,101221.28
2022-11-13T04:51:09.623Z,101205.78
2022-11-13T04:53:39.203Z,101209.16
2022-11-13T04:56:10.186Z,101214.66
2022-11-13T04:58:39.739Z,101205.72
2022-11-13T05:01:09.296Z,101204.63
2022-11-13T05:03:39.011Z,101196.03
2022-11-13T05:06:10.073Z,101201.09
2022-11-13T05:08:39.696Z,101202.13
2022-11-13T05:11:10.540Z,101208.78
2022-11-13T05:13:40.447Z,101214.72
2022-11-13T05:16:11.713Z,101217.22
2022-11-13T05:18:41.523Z,101211.75
2022-11-13T05:21:10.991Z,101207.91
2022-11-13T05:23:40.498Z,101210.41
2022-11-13T05:26:12.247Z,101218.06
2022-11-13T05:28:41.841Z,101225.88
2022-11-13T05:31:12.118Z,101225.03
2022-11-13T05:33:42.454Z,101225.88
2022-11-13T05:36:14.341Z,101233.41
2022-11-13T05:38:44.313Z,101227.59
2022-11-13T05:41:15.827Z,101227.44
2022-11-13T05:43:45.666Z,101236.44
2022-11-13T05:46:16.507Z,101236.34
2022-11-13T05:48:46.650Z,101237.00
2022-11-13T05:51:17.115Z,101236.06
2022-11-13T05:53:46.896Z,101236.94
2022-11-13T05:56:18.913Z,101246.56
2022-11-13T05:58:48.988Z,101246.56
2022-11-13T06:01:19.685Z,101246.38
2022-11-13T06:03:49.606Z,101248.03
2022-11-13T06:06:20.221Z,101250.63
2022-11-13T06:08:50.753Z,101245.97
2022-11-13T06:11:24.518Z,101243.31
2022-11-13T06:13:54.831Z,101250.19
2022-11-13T06:16:25.619Z,101250.97
2022-11-13T06:18:56.200Z,101247.63
2022-11-13T06:21:26.841Z,101249.94
2022-11-13T06:23:57.498Z,101256.50
2022-11-13T06:26:29.256Z,101257.13
2022-11-13T06:28:59.015Z,101252.22
2022-11-13T06:31:29.249Z,101255.50
2022-11-13T06:34:00.171Z,101250.72
2022-11-13T06:36:33.334Z,101244.25
2022-11-13T06:39:03.246Z,101249.66
2022-11-13T06:41:34.246Z,101255.78
2022-11-13T06:44:03.864Z,101254.91
2022-11-13T06:46:33.646Z,101254.75
2022-11-13T06:49:03.154Z,101252.59
2022-11-13T06:51:32.707Z,101249.00
2022-11-13T06:54:07.365Z,101247.88
2022-11-13T06:56:43.767Z,101248.38
2022-11-13T06:59:13.308Z,101253.72
2022-11-13T07:01:42.813Z,101241.19
2022-11-13T07:04:13.466Z,101247.97
2022-11-13T07:06:43.101Z,101247.81
2022-11-13T07:09:12.602Z,101249.25
2022-11-13T07:11:44.205Z,101252.41
2022-11-13T07:14:14.289Z,101251.22
2022-11-13T07:17:08.090Z,101246.50
2022-11-13T07:19:33.981Z,101244.31
2022-11-13T07:22:03.465Z,101244.06
2022-11-13T07:24:33.036Z,101239.22
2022-11-13T07:27:04.157Z,101242.50
2022-11-13T07:29:33.670Z,101239.63
2022-11-13T07:32:03.211Z,101242.13
2022-11-13T07:34:32.770Z,101240.81
2022-11-13T07:37:03.118Z,101241.69
2022-11-13T07:39:32.641Z,101235.34
2022-11-13T07:42:02.142Z,101230.16
2022-11-13T07:44:53.394Z,101233.41
2022-11-13T07:47:22.741Z,101240.94
2022-11-13T07:49:53.735Z,101236.03
2022-11-13T07:52:24.842Z,101237.09
2022-11-13T07:54:54.410Z,101229.03
2022-11-13T07:57:23.985Z,101228.84
2022-11-13T07:59:55.128Z,101234.00
2022-11-13T08:02:26.684Z,101230.34
2022-11-13T08:04:56.596Z,101225.59
2022-11-13T08:07:26.498Z,101226.44
2022-11-13T08:09:56.046Z,101225.09
2022-11-13T08:12:26.075Z,101228.63
2022-11-13T08:14:57.276Z,101222.06
2022-11-13T08:17:27.399Z,101222.44
2022-11-13T08:19:56.868Z,101223.31
2022-11-13T08:22:26.700Z,101221.28
2022-11-13T08:24:56.269Z,101223.31
2022-11-13T08:27:26.139Z,101217.09
2022-11-13T08:29:57.045Z,101221.66
2022-11-13T08:32:26.591Z,101223.50
2022-11-13T08:34:56.084Z,101221.47
2022-11-13T08:37:25.698Z,101219.94
2022-11-13T08:39:55.317Z,101215.94
2022-11-13T08:42:24.799Z,101216.72
2022-11-13T08:44:54.287Z,101214.75
2022-11-13T08:47:29.434Z,101214.81
2022-11-13T08:49:59.545Z,101209.56
2022-11-13T08:52:29.284Z,101221.72
2022-11-13T08:54:59.128Z,101220.09
2022-11-13T08:57:28.694Z,101219.97
2022-11-13T08:59:58.120Z,101223.28
2022-11-13T09:02:29.080Z,101220.91
2022-11-13T09:04:58.665Z,101213.28
2022-11-13T09:07:28.682Z,101215.66
2022-11-13T09:09:58.205Z,101215.34
2022-11-13T09:12:28.687Z,101207.66
2022-11-13T09:14:59.245Z,101207.44
2022-11-13T09:17:30.682Z,101200.53
2022-11-13T09:20:04.009Z,101202.31
2022-11-13T09:22:34.604Z,101200.94
2022-11-13T09:25:04.296Z,101202.00
2022-11-13T09:27:34.804Z,101193.22
2022-11-13T09:30:04.658Z,101193.31
2022-11-13T09:32:35.841Z,101188.16
2022-11-13T09:35:05.606Z,101183.69
2022-11-13T09:37:35.297Z,101177.03
2022-11-13T09:40:05.030Z,101173.78
2022-11-13T09:42:35.908Z,101178.94
2022-11-13T09:45:08.085Z,101179.34
2022-11-13T09:47:41.541Z,101169.53
2022-11-13T09:50:13.373Z,101168.44
2022-11-13T09:52:44.013Z,101167.72
2022-11-13T09:55:14.529Z,101169.59
2022-11-13T09:57:48.581Z,101160.84
2022-11-13T10:00:19.474Z,101160.22
2022-11-13T10:02:58.393Z,101156.75
2022-11-13T10:05:33.003Z,101156.66
2022-11-13T10:08:06.925Z,101157.31
2022-11-13T10:10:55.637Z,101162.25
2022-11-13T10:13:28.561Z,101156.59
2022-11-13T10:16:03.302Z,101149.66
2022-11-13T10:18:36.400Z,101146.19
2022-11-13T10:21:11.059Z,101148.63
2022-11-13T10:23:41.031Z,101137.50
2022-11-13T10:26:14.441Z,101139.03
2022-11-13T10:28:50.414Z,101126.03
2022-11-13T10:31:20.397Z,101129.09
2022-11-13T10:33:52.274Z,101127.16
2022-11-13T10:36:25.693Z,101123.09
2022-11-13T10:38:59.667Z,101113.88
2022-11-13T10:41:29.456Z,101114.19
2022-11-13T10:43:59.913Z,101125.84
2022-11-13T10:46:30.617Z,101117.81
2022-11-13T10:49:12.245Z,101109.13
2022-11-13T10:51:42.160Z,101113.00
2022-11-13T10:54:21.998Z,101099.84
2022-11-13T10:56:58.192Z,101097.34
2022-11-13T10:59:28.417Z,101088.59
2022-11-13T11:01:57.933Z,101094.91
2022-11-13T11:04:28.880Z,101095.09
2022-11-13T11:07:19.734Z,101091.69
2022-11-13T11:09:51.907Z,101080.22
2022-11-13T11:12:30.321Z,101075.66
2022-11-13T11:15:17.514Z,101075.44
2022-11-13T11:17:54.762Z,101074.81
2022-11-13T11:20:27.839Z,101071.50
2022-11-13T11:23:00.677Z,101062.00
2022-11-13T11:25:34.775Z,101056.66
2022-11-13T11:28:07.053Z,101055.16
2022-11-13T11:30:41.116Z,101054.28
2022-11-13T11:33:14.176Z,101057.91
2022-11-13T11:35:48.381Z,101061.22
2022-11-13T11:38:20.834Z,101043.34
2022-11-13T11:40:53.681Z,101052.44
2022-11-13T11:43:28.297Z,101046.13
2022-11-13T11:45:58.028Z,101037.75
2022-11-13T11:48:29.861Z,101040.56
2022-11-13T11:51:05.024Z,101041.19
2022-11-13T11:53:41.226Z,101035.09
2022-11-13T11:56:16.041Z,101033.38
2022-11-13T11:58:56.069Z,101028.13
2022-11-13T12:01:34.060Z,101022.16
2022-11-13T12:04:11.715Z,101022.50
2022-11-13T12:06:49.821Z,101020.66
2022-11-13T12:09:24.593Z,101012.63
2022-11-13T12:12:00.807Z,101017.03
2022-11-13T12:14:37.254Z,101012.50
2022-11-13T12:17:17.316Z,101007.94
2022-11-13T12:19:53.199Z,101007.16
2022-11-13T12:22:30.682Z,101006.31
2022-11-13T12:25:09.521Z,101002.88
2022-11-13T12:27:43.982Z,101000.19
2022-11-13T12:30:16.781Z,101003.75
2022-11-13T12:32:53.647Z,101005.66
2022-11-13T12:35:24.856Z,101002.88
2022-11-13T12:37:58.067Z,101001.91
2022-11-13T12:40:30.070Z,100990.50
2022-11-13T12:43:06.868Z,100996.69
2022-11-13T12:45:45.614Z,100992.50
2022-11-13T12:48:29.353Z,100993.81
2022-11-13T12:51:00.465Z,100992.13
2022-11-13T12:53:32.301Z,100995.97
2022-11-13T12:56:02.783Z,100987.28
2022-11-13T12:58:33.785Z,100989.34
2022-11-13T13:01:07.158Z,100984.13
2022-11-13T13:03:45.105Z,100991.16
2022-11-13T13:06:22.382Z,100988.59
2022-11-13T13:09:02.054Z,100987.63
2022-11-13T13:11:38.362Z,100986.91
2022-11-13T13:14:26.149Z,100977.22
2022-11-13T13:17:05.517Z,100978.41
2022-11-13T13:19:35.078Z,100979.25
2022-11-13T13:22:04.651Z,100982.16
2022-11-13T13:24:36.621Z,100977.69
2022-11-13T13:27:21.651Z,100981.41
2022-11-13T13:29:51.167Z,100979.59
2022-11-13T13:32:23.909Z,100966.31
2022-11-13T13:35:00.857Z,100970.84
2022-11-13T13:37:36.340Z,100969.22
2022-11-13T13:40:14.256Z,100965.81
2022-11-13T13:42:51.157Z,100957.78
2022-11-13T13:45:25.954Z,100966.78
2022-11-13T13:47:57.575Z,100958.75
2022-11-13T13:50:29.183Z,100957.91
2022-11-13T13:52:59.748Z,100961.19
2022-11-13T13:55:33.107Z,100958.84
2022-11-13T13:58:05.700Z,100951.28
2022-11-13T14:00:44.592Z,100958.53
2022-11-13T14:03:25.105Z,100964.00
2022-11-13T14:05:58.144Z,100967.41
2022-11-13T14:08:31.867Z,100965.94
2022-11-13T14:11:16.883Z,100967.00
2022-11-13T14:13:47.123Z,100968.06
2022-11-13T14:16:17.131Z,100971.50
2022-11-13T14:18:46.849Z,100971.81
2022-11-13T14:21:17.927Z,100958.66
2022-11-13T14:23:49.194Z,100967.72
2022-11-13T14:26:21.263Z,100961.88
2022-11-13T14:28:54.025Z,100957.69
2022-11-13T14:31:29.865Z,100965.94
2022-11-13T14:34:01.786Z,100950.31
2022-11-13T14:36:33.174Z,100963.13
2022-11-13T14:39:02.794Z,100958.00
2022-11-13T14:41:36.273Z,100961.84
2022-11-13T14:44:06.492Z,100956.09
2022-11-13T14:46:37.201Z,100959.25
2022-11-13T14:49:13.881Z,100955.84
2022-11-13T14:51:43.765Z,100957.13
2022-11-13T14:54:33.815Z,100958.38
2022-11-13T14:57:13.819Z,100953.38
2022-11-13T14:59:44.357Z,100955.38
2022-11-13T15:02:14.443Z,100950.44
2022-11-13T15:04:44.117Z,100946.38
2022-11-13T15:07:22.130Z,100950.09
2022-11-13T15:09:51.862Z,100952.13
2022-11-13T15:12:24.196Z,100951.47
2022-11-13T15:14:54.457Z,100955.31
2022-11-13T15:17:24.579Z,100949.41
2022-11-13T15:19:55.006Z,100953.13
2022-11-13T15:22:28.689Z,100948.22
2022-11-13T15:24:58.716Z,100948.41
2022-11-13T15:27:29.655Z,100940.50
2022-11-13T15:29:59.537Z,100944.31
2022-11-13T15:32:30.795Z,100942.78
2022-11-13T15:35:00.961Z,100949.38
2022-11-13T15:37:30.612Z,100953.13
2022-11-13T15:40:00.433Z,100950.72
2022-11-13T15:42:33.516Z,100953.50
2022-11-13T15:45:03.324Z,100953.88
2022-11-13T15:47:34.611Z,100952.16
2022-11-13T15:50:14.400Z,100952.16
2022-11-13T15:52:47.073Z,100956.06
2022-11-13T15:55:20.419Z,100956.84
2022-11-13T15:57:51.377Z,100967.72
2022-11-13T16:00:24.943Z,100958.19
2022-11-13T16:02:55.919Z,100965.34
2022-11-13T16:05:26.513Z,100963.84
2022-11-13T16:07:56.740Z,100967.84
2022-11-13T16:10:26.535Z,100968.97
2022-11-13T16:12:58.913Z,100958.50
2022-11-13T16:15:28.935Z,100973.91
2022-11-13T16:17:59.107Z,100962.50
2022-11-13T16:20:28.821Z,100964.19
2022-11-13T16:22:58.557Z,100974.13
2022-11-13T16:25:28.090Z,100969.72
2022-11-13T16:27:59.545Z,100971.94
2022-11-13T16:30:31.413Z,100970.31
2022-11-13T16:33:05.759Z,100971.53
2022-11-13T16:35:35.316Z,100976.38
2022-11-13T16:38:05.213Z,100976.38
2022-11-13T16:40:34.893Z,100978.59
2022-11-13T16:43:05.714Z,100964.03
2022-11-13T16:45:35.278Z,100975.63
2022-11-13T16:48:05.250Z,100961.75
2022-11-13T16:50:36.932Z,100965.25
2022-11-13T16:53:06.459Z,100980.00
2022-11-13T16:55:36.812Z,100972.94
2022-11-13T16:58:07.703Z,100970.66
2022-11-13T17:00:37.253Z,100977.88
2022-11-13T17:03:06.814Z,100975.69
2022-11-13T17:05:36.546Z,100979.66
2022-11-13T17:08:06.407Z,100975.53
2022-11-13T17:10:36.140Z,100979.19
2022-11-13T17:13:07.788Z,100983.16
2022-11-13T17:15:37.891Z,100985.91
2022-11-13T17:18:10.453Z,100985.41
2022-11-13T17:20:40.069Z,100978.63
2022-11-13T17:23:12.497Z,100986.78
2022-11-13T17:25:43.012Z,100978.53
2022-11-13T17:28:13.890Z,100983.19
2022-11-13T17:30:43.399Z,100979.59
2022-11-13T17:33:13.152Z,100982.16
2022-11-13T17:35:46.469Z,100983.03
2022-11-13T17:38:16.234Z,100979.78
2022-11-13T17:40:46.326Z,100983.41
2022-11-13T17:43:17.629Z,100985.34
2022-11-13T17:45:50.034Z,100984.34
2022-11-13T17:48:20.136Z,100986.22
2022-11-13T17:50:59.115Z,100990.94
2022-11-13T17:53:29.243Z,100986.56
2022-11-13T17:56:00.772Z,100984.25
2022-11-13T17:58:31.918Z,100975.63
2022-11-13T18:01:05.290Z,100975.72
2022-11-13T18:03:37.854Z,100968.19
2022-11-13T18:06:09.490Z,100969.31
2022-11-13T18:08:39.495Z,100971.97
2022-11-13T18:11:10.076Z,100973.69
2022-11-13T18:13:41.258Z,100966.91
2022-11-13T18:16:12.912Z,100967.56
2022-11-13T18:18:42.681Z,100963.81
2022-11-13T18:21:22.518Z,100960.38
2022-11-13T18:23:57.424Z,100957.72
2022-11-13T18:26:27.676Z,100955.56
2022-11-13T18:28:59.231Z,100966.06
2022-11-13T18:31:29.578Z,100960.22
2022-11-13T18:33:59.566Z,100958.50
2022-11-13T18:36:29.780Z,100946.66
2022-11-13T18:39:02.059Z,100958.13
2022-11-13T18:41:32.631Z,100965.34
2022-11-13T18:44:03.958Z,100958.13
2022-11-13T18:46:33.569Z,100958.41
2022-11-13T18:49:03.289Z,100957.47
2022-11-13T18:51:35.686Z,100965.63
2022-11-13T18:54:09.645Z,100963.22
2022-11-13T18:56:40.764Z,100972.75
2022-11-13T18:59:11.841Z,100967.56
2022-11-13T19:01:42.206Z,100963.47
2022-11-13T19:04:27.487Z,100955.66
2022-11-13T19:06:57.539Z,100955.91
2022-11-13T19:09:27.565Z,100956.25
2022-11-13T19:11:58.186Z,100964.06
2022-11-13T19:14:29.903Z,100964.31
2022-11-13T19:17:00.325Z,100960.94
2022-11-13T19:19:29.956Z,100961.03
2022-11-13T19:22:00.494Z,100960.28
2022-11-13T19:24:30.717Z,100964.97
2022-11-13T19:27:00.587Z,100962.47
2022-11-13T19:29:31.673Z,100963.75
2022-11-13T19:32:01.452Z,100960.25
2022-11-13T19:34:31.107Z,100961.88
2022-11-13T19:37:00.731Z,100958.94
2022-11-13T19:39:30.461Z,100965.97
2022-11-13T19:42:00.262Z,100962.78
2022-11-13T19:44:31.521Z,100957.53
2022-11-13T19:47:01.226Z,100960.88
2022-11-13T19:49:31.005Z,100958.16
2022-11-13T19:52:00.735Z,100955.66
2022-11-13T19:54:30.357Z,100958.31
2022-11-13T19:57:00.242Z,100964.50
2022-11-13T19:59:31.216Z,100953.59
2022-11-13T20:02:00.740Z,100958.44
2022-11-13T20:04:30.280Z,100944.91
2022-11-13T20:07:00.160Z,100943.91
2022-11-13T20:09:30.102Z,100946.31
2022-11-13T20:12:00.243Z,100945.47
2022-11-13T20:14:35.668Z,100950.16
2022-11-13T20:17:09.109Z,100950.25
2022-11-13T20:19:38.938Z,100938.53
2022-11-13T20:22:08.493Z,100941.59
2022-11-13T20:24:38.095Z,100941.50
2022-11-13T20:27:07.753Z,100936.53
2022-11-13T20:29:38.660Z,100939.25
2022-11-13T20:32:08.232Z,100933.06
2022-11-13T20:34:37.710Z,100935.13
2022-11-13T20:37:07.218Z,100928.66
2022-11-13T20:39:38.894Z,100924.66
2022-11-13T20:42:09.004Z,100933.41
2022-11-13T20:44:39.865Z,100931.00
2022-11-13T20:47:09.372Z,100925.59
2022-11-13T20:49:38.895Z,100921.53
2022-11-13T20:52:09.703Z,100924.03
2022-11-13T20:54:39.312Z,100921.13
2022-11-13T20:57:08.840Z,100922.22
2022-11-13T20:59:39.771Z,100919.66
2022-11-13T21:02:10.065Z,100918.97
2022-11-13T21:04:39.640Z,100907.97
2022-11-13T21:07:09.269Z,100913.91
2022-11-13T21:09:38.817Z,100918.56
2022-11-13T21:12:09.028Z,100917.72
2022-11-13T21:14:40.714Z,100911.53
2022-11-13T21:17:10.718Z,100917.16
2022-11-13T21:19:40.201Z,100914.34
2022-11-13T21:22:09.729Z,100911.84
2022-11-13T21:24:39.228Z,100916.41
2022-11-13T21:27:08.730Z,100912.78
2022-11-13T21:29:38.235Z,100903.91
2022-11-13T21:32:09.142Z,100903.91
2022-11-13T21:34:38.737Z,100904.63
2022-11-13T21:37:08.323Z,100904.97
2022-11-13T21:39:37.831Z,100905.59
2022-11-13T21:42:07.731Z,100907.53
2022-11-13T21:44:37.768Z,100906.22
2022-11-13T21:47:07.322Z,100896.41
2022-11-13T21:49:38.223Z,100901.78
2022-11-13T21:52:07.700Z,100903.97
2022-11-13T21:54:37.238Z,100901.78
2022-11-13T21:57:07.029Z,100903.03
2022-11-13T21:59:36.597Z,100902.63
2022-11-13T22:02:06.174Z,100898.97
2022-11-13T22:04:35.838Z,100902.38
2022-11-13T22:07:06.830Z,100899.66
2022-11-13T22:09:37.102Z,100907.16
2022-11-13T22:12:07.525Z,100901.03
2022-11-13T22:14:37.442Z,100902.03
2022-11-13T22:17:07.464Z,100900.13
2022-11-13T22:19:37.239Z,100892.78
2022-11-13T22:22:08.219Z,100890.03
2022-11-13T22:24:37.733Z,100892.41
2022-11-13T22:27:07.244Z,100896.28
2022-11-13T22:29:36.793Z,100892.66
2022-11-13T22:32:06.437Z,100880.91
2022-11-13T22:34:35.921Z,100886.13
2022-11-13T22:37:05.433Z,100875.84
2022-11-13T22:39:36.310Z,100868.53
2022-11-13T22:42:05.851Z,100871.69
2022-11-13T22:44:54.831Z,100875.16
2022-11-13T22:47:24.833Z,100869.13
2022-11-13T22:49:54.300Z,100873.28
2022-11-13T22:52:23.897Z,100869.78
2022-11-13T22:54:54.781Z,100869.19
2022-11-13T22:57:24.294Z,100867.19
2022-11-13T22:59:53.820Z,100876.16
2022-11-13T23:02:23.449Z,100870.94
2022-11-13T23:04:52.938Z,100857.75
2022-11-13T23:07:22.845Z,100863.31
2022-11-13T23:09:52.564Z,100866.06
2022-11-13T23:12:24.140Z,100854.72
2022-11-13T23:14:53.996Z,100863.91
2022-11-13T23:17:23.994Z,100859.44
2022-11-13T23:19:53.549Z,100861.31
2022-11-13T23:22:23.058Z,100856.03
2022-11-13T23:24:52.613Z,100853.16
2022-11-13T23:27:22.196Z,100857.03
2022-11-13T23:29:53.832Z,100854.97
2022-11-13T23:32:23.606Z,100854.16
2022-11-13T23:34:59.308Z,100852.88
2022-11-13T23:37:29.545Z,100846.97
2022-11-13T23:39:59.203Z,100855.81
2022-11-13T23:42:53.382Z,100853.88
2022-11-13T23:45:19.798Z,100850.38
2022-11-13T23:47:49.304Z,100856.97
2022-11-13T23:50:18.809Z,100858.13
2022-11-13T23:52:48.571Z,100862.06
2022-11-13T23:55:18.670Z,100863.13
2022-11-13T23:57:48.457Z,100866.78
